sensor_id;sensor_type;location;lat;lon;timestamp;P1;durP1;ratioP1;P2;durP2;ratioP2
34930;SDS011;21134;49.646;8.560;2023-04-16T00:01:14;4.10;;;2.20;;
34930;SDS011;21134;49.646;8.560;2023-04-16T00:03:40;4.57;;;2.20;;
34930;SDS011;21134;49.646;8.560;2023-04-16T00:06:09;5.30;;;2.07;;
34930;SDS011;21134;49.646;8.560;2023-04-16T00:08:36;3.43;;;1.87;;
34930;SDS011;21134;49.646;8.560;2023-04-16T00:11:04;1.80;;;1.13;;
34930;SDS011;21134;49.646;8.560;2023-04-16T00:13:31;3.27;;;1.77;;
34930;SDS011;21134;49.646;8.560;2023-04-16T00:15:57;2.47;;;2.13;;
34930;SDS011;21134;49.646;8.560;2023-04-16T00:18:24;2.03;;;1.37;;
34930;SDS011;21134;49.646;8.560;2023-04-16T00:20:51;5.27;;;2.27;;
34930;SDS011;21134;49.646;8.560;2023-04-16T00:23:20;3.20;;;2.10;;
34930;SDS011;21134;49.646;8.560;2023-04-16T00:25:46;3.70;;;1.90;;
34930;SDS011;21134;49.646;8.560;2023-04-16T00:28:12;3.03;;;1.90;;
34930;SDS011;21134;49.646;8.560;2023-04-16T00:30:39;4.30;;;1.63;;
34930;SDS011;21134;49.646;8.560;2023-04-16T00:33:05;2.90;;;1.50;;
34930;SDS011;21134;49.646;8.560;2023-04-16T00:35:32;3.53;;;1.77;;
34930;SDS011;21134;49.646;8.560;2023-04-16T00:37:58;2.00;;;1.53;;
34930;SDS011;21134;49.646;8.560;2023-04-16T00:40:27;3.43;;;1.60;;
34930;SDS011;21134;49.646;8.560;2023-04-16T00:42:53;2.37;;;1.53;;
34930;SDS011;21134;49.646;8.560;2023-04-16T00:45:20;2.50;;;1.43;;
34930;SDS011;21134;49.646;8.560;2023-04-16T00:47:46;4.27;;;1.33;;
34930;SDS011;21134;49.646;8.560;2023-04-16T00:50:13;2.43;;;1.60;;
34930;SDS011;21134;49.646;8.560;2023-04-16T00:52:39;2.77;;;2.00;;
34930;SDS011;21134;49.646;8.560;2023-04-16T00:55:06;4.13;;;1.90;;
34930;SDS011;21134;49.646;8.560;2023-04-16T00:57:38;2.60;;;1.60;;
34930;SDS011;21134;49.646;8.560;2023-04-16T01:00:05;2.63;;;1.27;;
34930;SDS011;21134;49.646;8.560;2023-04-16T01:02:32;5.30;;;2.37;;
34930;SDS011;21134;49.646;8.560;2023-04-16T01:04:59;4.63;;;2.23;;
34930;SDS011;21134;49.646;8.560;2023-04-16T01:07:26;5.60;;;1.97;;
34930;SDS011;21134;49.646;8.560;2023-04-16T01:09:53;1.90;;;1.53;;
34930;SDS011;21134;49.646;8.560;2023-04-16T01:12:20;4.83;;;2.10;;
34930;SDS011;21134;49.646;8.560;2023-04-16T01:14:48;6.17;;;2.10;;
34930;SDS011;21134;49.646;8.560;2023-04-16T01:17:15;7.10;;;1.57;;
34930;SDS011;21134;49.646;8.560;2023-04-16T01:19:41;4.20;;;2.03;;
34930;SDS011;21134;49.646;8.560;2023-04-16T01:22:09;9.00;;;2.13;;
34930;SDS011;21134;49.646;8.560;2023-04-16T01:24:36;4.87;;;2.07;;
34930;SDS011;21134;49.646;8.560;2023-04-16T01:27:03;3.90;;;1.60;;
34930;SDS011;21134;49.646;8.560;2023-04-16T01:29:30;4.03;;;2.27;;
34930;SDS011;21134;49.646;8.560;2023-04-16T01:31:56;2.37;;;1.73;;
34930;SDS011;21134;49.646;8.560;2023-04-16T01:34:23;5.73;;;2.00;;
34930;SDS011;21134;49.646;8.560;2023-04-16T01:36:49;3.37;;;2.03;;
34930;SDS011;21134;49.646;8.560;2023-04-16T01:39:17;4.07;;;2.30;;
34930;SDS011;21134;49.646;8.560;2023-04-16T01:41:44;4.63;;;2.37;;
34930;SDS011;21134;49.646;8.560;2023-04-16T01:44:10;2.77;;;2.40;;
34930;SDS011;21134;49.646;8.560;2023-04-16T01:46:37;4.00;;;2.10;;
34930;SDS011;21134;49.646;8.560;2023-04-16T01:49:04;4.23;;;1.97;;
34930;SDS011;21134;49.646;8.560;2023-04-16T01:51:31;2.00;;;1.40;;
34930;SDS011;21134;49.646;8.560;2023-04-16T01:53:57;5.57;;;2.70;;
34930;SDS011;21134;49.646;8.560;2023-04-16T01:56:25;2.40;;;2.20;;
34930;SDS011;21134;49.646;8.560;2023-04-16T01:58:52;1.97;;;1.60;;
34930;SDS011;21134;49.646;8.560;2023-04-16T02:01:18;6.17;;;2.23;;
34930;SDS011;21134;49.646;8.560;2023-04-16T02:03:45;9.23;;;2.47;;
34930;SDS011;21134;49.646;8.560;2023-04-16T02:06:12;3.27;;;2.03;;
34930;SDS011;21134;49.646;8.560;2023-04-16T02:08:38;3.93;;;2.03;;
34930;SDS011;21134;49.646;8.560;2023-04-16T02:11:05;1.93;;;1.80;;
34930;SDS011;21134;49.646;8.560;2023-04-16T02:13:33;2.37;;;1.97;;
34930;SDS011;21134;49.646;8.560;2023-04-16T02:16:00;4.07;;;2.20;;
34930;SDS011;21134;49.646;8.560;2023-04-16T02:18:26;3.63;;;2.60;;
34930;SDS011;21134;49.646;8.560;2023-04-16T02:20:53;4.17;;;2.07;;
34930;SDS011;21134;49.646;8.560;2023-04-16T02:23:22;5.00;;;2.77;;
34930;SDS011;21134;49.646;8.560;2023-04-16T02:25:49;14.63;;;3.83;;
34930;SDS011;21134;49.646;8.560;2023-04-16T02:28:15;4.07;;;2.30;;
34930;SDS011;21134;49.646;8.560;2023-04-16T02:30:43;6.03;;;2.60;;
34930;SDS011;21134;49.646;8.560;2023-04-16T02:33:10;3.27;;;2.03;;
34930;SDS011;21134;49.646;8.560;2023-04-16T02:35:38;3.10;;;2.00;;
34930;SDS011;21134;49.646;8.560;2023-04-16T02:38:05;4.67;;;2.47;;
34930;SDS011;21134;49.646;8.560;2023-04-16T02:40:32;3.20;;;1.90;;
34930;SDS011;21134;49.646;8.560;2023-04-16T02:42:58;4.27;;;2.03;;
34930;SDS011;21134;49.646;8.560;2023-04-16T02:45:26;3.13;;;1.93;;
34930;SDS011;21134;49.646;8.560;2023-04-16T02:47:54;2.93;;;2.33;;
34930;SDS011;21134;49.646;8.560;2023-04-16T02:50:20;2.30;;;2.00;;
34930;SDS011;21134;49.646;8.560;2023-04-16T02:52:46;5.87;;;1.80;;
34930;SDS011;21134;49.646;8.560;2023-04-16T02:55:13;8.43;;;3.13;;
34930;SDS011;21134;49.646;8.560;2023-04-16T02:57:40;5.17;;;2.60;;
34930;SDS011;21134;49.646;8.560;2023-04-16T03:00:07;4.47;;;2.07;;
34930;SDS011;21134;49.646;8.560;2023-04-16T03:02:34;2.77;;;1.90;;
34930;SDS011;21134;49.646;8.560;2023-04-16T03:05:02;3.97;;;3.00;;
34930;SDS011;21134;49.646;8.560;2023-04-16T03:07:28;7.77;;;2.77;;
34930;SDS011;21134;49.646;8.560;2023-04-16T03:09:55;3.67;;;1.93;;
34930;SDS011;21134;49.646;8.560;2023-04-16T03:12:22;2.50;;;2.03;;
34930;SDS011;21134;49.646;8.560;2023-04-16T03:14:49;4.57;;;2.90;;
34930;SDS011;21134;49.646;8.560;2023-04-16T03:17:15;6.47;;;3.80;;
34930;SDS011;21134;49.646;8.560;2023-04-16T03:19:42;9.60;;;2.93;;
34930;SDS011;21134;49.646;8.560;2023-04-16T03:22:09;7.50;;;2.73;;
34930;SDS011;21134;49.646;8.560;2023-04-16T03:24:36;3.47;;;2.47;;
34930;SDS011;21134;49.646;8.560;2023-04-16T03:27:02;2.37;;;2.03;;
34930;SDS011;21134;49.646;8.560;2023-04-16T03:29:29;4.10;;;2.67;;
34930;SDS011;21134;49.646;8.560;2023-04-16T03:31:55;4.40;;;2.53;;
34930;SDS011;21134;49.646;8.560;2023-04-16T03:34:22;2.73;;;1.80;;
34930;SDS011;21134;49.646;8.560;2023-04-16T03:36:49;4.03;;;1.73;;
34930;SDS011;21134;49.646;8.560;2023-04-16T03:39:16;8.27;;;2.27;;
34930;SDS011;21134;49.646;8.560;2023-04-16T03:41:43;3.77;;;1.97;;
34930;SDS011;21134;49.646;8.560;2023-04-16T03:44:09;5.77;;;2.13;;
34930;SDS011;21134;49.646;8.560;2023-04-16T03:46:36;4.27;;;2.17;;
34930;SDS011;21134;49.646;8.560;2023-04-16T03:49:02;3.77;;;2.10;;
34930;SDS011;21134;49.646;8.560;2023-04-16T03:51:29;4.10;;;2.40;;
34930;SDS011;21134;49.646;8.560;2023-04-16T03:53:56;18.07;;;5.83;;
34930;SDS011;21134;49.646;8.560;2023-04-16T03:56:23;8.27;;;4.10;;
34930;SDS011;21134;49.646;8.560;2023-04-16T03:58:50;8.67;;;3.97;;
34930;SDS011;21134;49.646;8.560;2023-04-16T04:01:16;8.67;;;3.23;;
34930;SDS011;21134;49.646;8.560;2023-04-16T04:03:43;14.30;;;5.03;;
34930;SDS011;21134;49.646;8.560;2023-04-16T04:06:09;11.07;;;4.10;;
34930;SDS011;21134;49.646;8.560;2023-04-16T04:08:36;3.80;;;3.37;;
34930;SDS011;21134;49.646;8.560;2023-04-16T04:11:02;7.17;;;4.50;;
34930;SDS011;21134;49.646;8.560;2023-04-16T04:13:30;6.47;;;1.67;;
34930;SDS011;21134;49.646;8.560;2023-04-16T04:15:56;4.77;;;2.27;;
34930;SDS011;21134;49.646;8.560;2023-04-16T04:18:23;4.80;;;3.10;;
34930;SDS011;21134;49.646;8.560;2023-04-16T04:20:50;4.30;;;2.90;;
34930;SDS011;21134;49.646;8.560;2023-04-16T04:23:17;3.67;;;2.50;;
34930;SDS011;21134;49.646;8.560;2023-04-16T04:25:44;3.30;;;1.97;;
34930;SDS011;21134;49.646;8.560;2023-04-16T04:28:10;6.70;;;2.10;;
34930;SDS011;21134;49.646;8.560;2023-04-16T04:30:38;11.47;;;2.43;;
34930;SDS011;21134;49.646;8.560;2023-04-16T04:33:04;4.87;;;2.43;;
34930;SDS011;21134;49.646;8.560;2023-04-16T04:35:31;4.17;;;2.93;;
34930;SDS011;21134;49.646;8.560;2023-04-16T04:37:58;2.90;;;2.10;;
34930;SDS011;21134;49.646;8.560;2023-04-16T04:40:24;5.70;;;2.20;;
34930;SDS011;21134;49.646;8.560;2023-04-16T04:42:51;6.23;;;2.67;;
34930;SDS011;21134;49.646;8.560;2023-04-16T04:45:17;8.50;;;2.97;;
34930;SDS011;21134;49.646;8.560;2023-04-16T04:47:45;3.30;;;2.30;;
34930;SDS011;21134;49.646;8.560;2023-04-16T04:50:12;2.03;;;1.87;;
34930;SDS011;21134;49.646;8.560;2023-04-16T04:52:38;4.03;;;2.13;;
34930;SDS011;21134;49.646;8.560;2023-04-16T04:55:05;2.27;;;1.50;;
34930;SDS011;21134;49.646;8.560;2023-04-16T04:57:31;7.73;;;3.17;;
34930;SDS011;21134;49.646;8.560;2023-04-16T04:59:58;5.27;;;2.60;;
34930;SDS011;21134;49.646;8.560;2023-04-16T05:02:27;5.60;;;3.07;;
34930;SDS011;21134;49.646;8.560;2023-04-16T05:04:55;2.47;;;1.30;;
34930;SDS011;21134;49.646;8.560;2023-04-16T05:07:21;6.00;;;1.90;;
34930;SDS011;21134;49.646;8.560;2023-04-16T05:09:48;4.63;;;2.07;;
34930;SDS011;21134;49.646;8.560;2023-04-16T05:12:14;3.63;;;2.97;;
34930;SDS011;21134;49.646;8.560;2023-04-16T05:14:41;6.30;;;3.03;;
34930;SDS011;21134;49.646;8.560;2023-04-16T05:17:07;4.10;;;2.20;;
34930;SDS011;21134;49.646;8.560;2023-04-16T05:19:34;5.20;;;2.33;;
34930;SDS011;21134;49.646;8.560;2023-04-16T05:22:02;5.87;;;4.00;;
34930;SDS011;21134;49.646;8.560;2023-04-16T05:24:29;7.03;;;2.67;;
34930;SDS011;21134;49.646;8.560;2023-04-16T05:26:55;2.23;;;1.80;;
34930;SDS011;21134;49.646;8.560;2023-04-16T05:29:22;4.50;;;1.77;;
34930;SDS011;21134;49.646;8.560;2023-04-16T05:31:49;7.97;;;3.00;;
34930;SDS011;21134;49.646;8.560;2023-04-16T05:34:15;2.13;;;1.97;;
34930;SDS011;21134;49.646;8.560;2023-04-16T05:36:42;3.93;;;2.20;;
34930;SDS011;21134;49.646;8.560;2023-04-16T05:39:09;6.17;;;2.03;;
34930;SDS011;21134;49.646;8.560;2023-04-16T05:41:36;4.20;;;1.67;;
34930;SDS011;21134;49.646;8.560;2023-04-16T05:44:02;6.60;;;1.77;;
34930;SDS011;21134;49.646;8.560;2023-04-16T05:46:29;4.77;;;1.97;;
34930;SDS011;21134;49.646;8.560;2023-04-16T05:48:56;5.53;;;1.57;;
34930;SDS011;21134;49.646;8.560;2023-04-16T05:51:22;5.30;;;1.97;;
34930;SDS011;21134;49.646;8.560;2023-04-16T05:53:51;4.87;;;2.53;;
34930;SDS011;21134;49.646;8.560;2023-04-16T05:56:19;2.77;;;2.10;;
34930;SDS011;21134;49.646;8.560;2023-04-16T05:58:45;10.10;;;4.20;;
34930;SDS011;21134;49.646;8.560;2023-04-16T06:01:12;8.83;;;2.20;;
34930;SDS011;21134;49.646;8.560;2023-04-16T06:03:38;5.47;;;2.77;;
34930;SDS011;21134;49.646;8.560;2023-04-16T06:06:05;2.90;;;2.63;;
34930;SDS011;21134;49.646;8.560;2023-04-16T06:08:32;7.27;;;2.97;;
34930;SDS011;21134;49.646;8.560;2023-04-16T06:10:59;4.00;;;2.57;;
34930;SDS011;21134;49.646;8.560;2023-04-16T06:13:27;3.87;;;2.27;;
34930;SDS011;21134;49.646;8.560;2023-04-16T06:15:53;2.67;;;1.80;;
34930;SDS011;21134;49.646;8.560;2023-04-16T06:18:20;2.73;;;2.33;;
34930;SDS011;21134;49.646;8.560;2023-04-16T06:20:46;8.30;;;3.27;;
34930;SDS011;21134;49.646;8.560;2023-04-16T06:23:13;2.77;;;1.93;;
34930;SDS011;21134;49.646;8.560;2023-04-16T06:25:39;4.87;;;2.27;;
34930;SDS011;21134;49.646;8.560;2023-04-16T06:28:06;3.97;;;1.70;;
34930;SDS011;21134;49.646;8.560;2023-04-16T06:30:34;2.90;;;2.20;;
34930;SDS011;21134;49.646;8.560;2023-04-16T06:33:00;1.57;;;1.37;;
34930;SDS011;21134;49.646;8.560;2023-04-16T06:35:27;3.97;;;2.33;;
34930;SDS011;21134;49.646;8.560;2023-04-16T06:37:53;3.37;;;2.50;;
34930;SDS011;21134;49.646;8.560;2023-04-16T06:40:20;2.30;;;2.00;;
34930;SDS011;21134;49.646;8.560;2023-04-16T06:42:46;8.97;;;3.20;;
34930;SDS011;21134;49.646;8.560;2023-04-16T06:45:13;4.03;;;1.93;;
34930;SDS011;21134;49.646;8.560;2023-04-16T06:47:41;5.70;;;1.87;;
34930;SDS011;21134;49.646;8.560;2023-04-16T06:50:07;2.70;;;1.90;;
34930;SDS011;21134;49.646;8.560;2023-04-16T06:52:34;4.83;;;2.30;;
34930;SDS011;21134;49.646;8.560;2023-04-16T06:55:01;3.20;;;1.37;;
34930;SDS011;21134;49.646;8.560;2023-04-16T06:57:27;6.77;;;3.40;;
34930;SDS011;21134;49.646;8.560;2023-04-16T06:59:54;4.47;;;2.80;;
34930;SDS011;21134;49.646;8.560;2023-04-16T07:02:20;7.40;;;3.50;;
34930;SDS011;21134;49.646;8.560;2023-04-16T07:04:48;9.27;;;3.57;;
34930;SDS011;21134;49.646;8.560;2023-04-16T07:07:16;2.70;;;2.43;;
34930;SDS011;21134;49.646;8.560;2023-04-16T07:09:42;7.10;;;3.17;;
34930;SDS011;21134;49.646;8.560;2023-04-16T07:12:09;9.57;;;3.60;;
34930;SDS011;21134;49.646;8.560;2023-04-16T07:14:36;6.87;;;2.40;;
34930;SDS011;21134;49.646;8.560;2023-04-16T07:17:02;7.63;;;3.50;;
34930;SDS011;21134;49.646;8.560;2023-04-16T07:19:29;6.97;;;3.37;;
34930;SDS011;21134;49.646;8.560;2023-04-16T07:21:58;8.17;;;4.20;;
34930;SDS011;21134;49.646;8.560;2023-04-16T07:24:24;9.27;;;4.20;;
34930;SDS011;21134;49.646;8.560;2023-04-16T07:26:51;8.43;;;3.30;;
34930;SDS011;21134;49.646;8.560;2023-04-16T07:29:17;14.40;;;4.90;;
34930;SDS011;21134;49.646;8.560;2023-04-16T07:31:44;11.67;;;4.63;;
34930;SDS011;21134;49.646;8.560;2023-04-16T07:34:10;6.77;;;3.80;;
34930;SDS011;21134;49.646;8.560;2023-04-16T07:36:37;15.27;;;4.73;;
34930;SDS011;21134;49.646;8.560;2023-04-16T07:39:05;9.30;;;3.80;;
34930;SDS011;21134;49.646;8.560;2023-04-16T07:41:31;12.87;;;4.40;;
34930;SDS011;21134;49.646;8.560;2023-04-16T07:43:58;9.80;;;4.20;;
34930;SDS011;21134;49.646;8.560;2023-04-16T07:46:25;10.00;;;5.23;;
34930;SDS011;21134;49.646;8.560;2023-04-16T07:48:51;11.30;;;3.47;;
34930;SDS011;21134;49.646;8.560;2023-04-16T07:51:18;9.63;;;3.93;;
34930;SDS011;21134;49.646;8.560;2023-04-16T07:53:44;4.60;;;2.77;;
34930;SDS011;21134;49.646;8.560;2023-04-16T07:56:12;3.73;;;3.07;;
34930;SDS011;21134;49.646;8.560;2023-04-16T07:58:38;9.70;;;4.83;;
34930;SDS011;21134;49.646;8.560;2023-04-16T08:01:05;10.97;;;4.03;;
34930;SDS011;21134;49.646;8.560;2023-04-16T08:03:31;5.33;;;2.50;;
34930;SDS011;21134;49.646;8.560;2023-04-16T08:05:58;10.43;;;3.90;;
34930;SDS011;21134;49.646;8.560;2023-04-16T08:08:24;6.23;;;3.60;;
34930;SDS011;21134;49.646;8.560;2023-04-16T08:10:51;6.73;;;2.93;;
34930;SDS011;21134;49.646;8.560;2023-04-16T08:13:21;5.87;;;2.67;;
34930;SDS011;21134;49.646;8.560;2023-04-16T08:15:48;9.23;;;3.77;;
34930;SDS011;21134;49.646;8.560;2023-04-16T08:18:14;10.77;;;3.43;;
34930;SDS011;21134;49.646;8.560;2023-04-16T08:20:41;9.20;;;3.10;;
34930;SDS011;21134;49.646;8.560;2023-04-16T08:23:07;5.83;;;3.33;;
34930;SDS011;21134;49.646;8.560;2023-04-16T08:25:34;6.47;;;3.67;;
34930;SDS011;21134;49.646;8.560;2023-04-16T08:28:00;8.53;;;3.70;;
34930;SDS011;21134;49.646;8.560;2023-04-16T08:30:28;13.63;;;3.70;;
34930;SDS011;21134;49.646;8.560;2023-04-16T08:32:55;11.67;;;3.17;;
34930;SDS011;21134;49.646;8.560;2023-04-16T08:35:21;5.57;;;3.77;;
34930;SDS011;21134;49.646;8.560;2023-04-16T08:37:48;3.00;;;2.50;;
34930;SDS011;21134;49.646;8.560;2023-04-16T08:40:14;5.97;;;3.37;;
34930;SDS011;21134;49.646;8.560;2023-04-16T08:42:44;6.47;;;2.70;;
34930;SDS011;21134;49.646;8.560;2023-04-16T08:45:14;8.87;;;2.73;;
34930;SDS011;21134;49.646;8.560;2023-04-16T08:47:44;4.10;;;2.70;;
34930;SDS011;21134;49.646;8.560;2023-04-16T08:50:13;6.43;;;3.07;;
34930;SDS011;21134;49.646;8.560;2023-04-16T08:52:42;7.80;;;3.37;;
34930;SDS011;21134;49.646;8.560;2023-04-16T08:55:11;8.40;;;4.30;;
34930;SDS011;21134;49.646;8.560;2023-04-16T08:57:46;4.00;;;1.90;;
34930;SDS011;21134;49.646;8.560;2023-04-16T09:00:17;4.43;;;2.83;;
34930;SDS011;21134;49.646;8.560;2023-04-16T09:02:46;6.20;;;4.33;;
34930;SDS011;21134;49.646;8.560;2023-04-16T09:05:14;8.97;;;4.33;;
34930;SDS011;21134;49.646;8.560;2023-04-16T09:07:42;10.93;;;3.63;;
34930;SDS011;21134;49.646;8.560;2023-04-16T09:10:09;2.03;;;1.50;;
34930;SDS011;21134;49.646;8.560;2023-04-16T09:12:38;6.97;;;2.60;;
34930;SDS011;21134;49.646;8.560;2023-04-16T09:15:06;7.33;;;2.53;;
34930;SDS011;21134;49.646;8.560;2023-04-16T09:17:34;6.50;;;3.07;;
34930;SDS011;21134;49.646;8.560;2023-04-16T09:20:02;6.10;;;4.10;;
34930;SDS011;21134;49.646;8.560;2023-04-16T09:22:32;6.03;;;2.33;;
34930;SDS011;21134;49.646;8.560;2023-04-16T09:24:59;8.53;;;3.50;;
34930;SDS011;21134;49.646;8.560;2023-04-16T09:27:26;7.33;;;3.77;;
34930;SDS011;21134;49.646;8.560;2023-04-16T09:29:53;5.87;;;2.00;;
34930;SDS011;21134;49.646;8.560;2023-04-16T09:32:23;13.87;;;3.00;;
34930;SDS011;21134;49.646;8.560;2023-04-16T09:34:54;10.83;;;2.93;;
34930;SDS011;21134;49.646;8.560;2023-04-16T09:37:24;6.83;;;2.73;;
34930;SDS011;21134;49.646;8.560;2023-04-16T09:39:51;8.13;;;3.63;;
34930;SDS011;21134;49.646;8.560;2023-04-16T09:42:20;7.70;;;2.73;;
34930;SDS011;21134;49.646;8.560;2023-04-16T09:44:48;6.63;;;2.77;;
34930;SDS011;21134;49.646;8.560;2023-04-16T09:47:15;12.10;;;3.57;;
34930;SDS011;21134;49.646;8.560;2023-04-16T09:49:41;3.33;;;2.17;;
34930;SDS011;21134;49.646;8.560;2023-04-16T09:52:11;8.13;;;3.13;;
34930;SDS011;21134;49.646;8.560;2023-04-16T09:54:45;4.43;;;2.37;;
34930;SDS011;21134;49.646;8.560;2023-04-16T09:57:12;9.50;;;3.00;;
34930;SDS011;21134;49.646;8.560;2023-04-16T09:59:39;9.57;;;2.83;;
34930;SDS011;21134;49.646;8.560;2023-04-16T10:02:06;2.83;;;2.27;;
34930;SDS011;21134;49.646;8.560;2023-04-16T10:04:43;7.70;;;4.33;;
34930;SDS011;21134;49.646;8.560;2023-04-16T10:07:11;7.93;;;4.37;;
34930;SDS011;21134;49.646;8.560;2023-04-16T10:09:38;5.27;;;1.83;;
34930;SDS011;21134;49.646;8.560;2023-04-16T10:12:07;6.63;;;3.07;;
34930;SDS011;21134;49.646;8.560;2023-04-16T10:14:34;5.23;;;2.60;;
34930;SDS011;21134;49.646;8.560;2023-04-16T10:17:01;3.13;;;2.50;;
34930;SDS011;21134;49.646;8.560;2023-04-16T10:19:30;7.17;;;2.50;;
34930;SDS011;21134;49.646;8.560;2023-04-16T10:21:57;4.77;;;2.10;;
34930;SDS011;21134;49.646;8.560;2023-04-16T10:24:24;5.43;;;2.97;;
34930;SDS011;21134;49.646;8.560;2023-04-16T10:26:51;3.87;;;2.73;;
34930;SDS011;21134;49.646;8.560;2023-04-16T10:29:19;6.17;;;2.87;;
34930;SDS011;21134;49.646;8.560;2023-04-16T10:31:47;6.70;;;2.90;;
34930;SDS011;21134;49.646;8.560;2023-04-16T10:34:14;12.00;;;3.60;;
34930;SDS011;21134;49.646;8.560;2023-04-16T10:36:42;7.20;;;3.37;;
34930;SDS011;21134;49.646;8.560;2023-04-16T10:39:08;7.43;;;2.30;;
34930;SDS011;21134;49.646;8.560;2023-04-16T10:41:36;5.37;;;2.30;;
34930;SDS011;21134;49.646;8.560;2023-04-16T10:44:04;8.03;;;3.47;;
34930;SDS011;21134;49.646;8.560;2023-04-16T10:46:35;8.37;;;3.23;;
34930;SDS011;21134;49.646;8.560;2023-04-16T10:49:11;5.10;;;2.57;;
34930;SDS011;21134;49.646;8.560;2023-04-16T10:51:39;5.13;;;3.67;;
34930;SDS011;21134;49.646;8.560;2023-04-16T10:54:17;4.33;;;2.83;;
34930;SDS011;21134;49.646;8.560;2023-04-16T10:56:45;6.50;;;2.87;;
34930;SDS011;21134;49.646;8.560;2023-04-16T10:59:12;15.87;;;4.33;;
34930;SDS011;21134;49.646;8.560;2023-04-16T11:01:44;5.30;;;3.33;;
34930;SDS011;21134;49.646;8.560;2023-04-16T11:07:16;9.33;;;3.37;;
34930;SDS011;21134;49.646;8.560;2023-04-16T11:09:54;11.77;;;4.80;;
34930;SDS011;21134;49.646;8.560;2023-04-16T11:12:23;11.23;;;3.83;;
34930;SDS011;21134;49.646;8.560;2023-04-16T11:14:53;7.07;;;2.23;;
34930;SDS011;21134;49.646;8.560;2023-04-16T11:17:26;7.77;;;3.57;;
34930;SDS011;21134;49.646;8.560;2023-04-16T11:19:54;9.37;;;3.33;;
34930;SDS011;21134;49.646;8.560;2023-04-16T11:22:21;6.43;;;2.13;;
34930;SDS011;21134;49.646;8.560;2023-04-16T11:24:52;9.97;;;4.50;;
34930;SDS011;21134;49.646;8.560;2023-04-16T11:27:19;13.07;;;5.43;;
34930;SDS011;21134;49.646;8.560;2023-04-16T11:29:46;5.00;;;3.30;;
34930;SDS011;21134;49.646;8.560;2023-04-16T11:32:22;7.90;;;2.87;;
34930;SDS011;21134;49.646;8.560;2023-04-16T11:34:50;5.63;;;3.60;;
34930;SDS011;21134;49.646;8.560;2023-04-16T11:37:18;10.00;;;3.77;;
34930;SDS011;21134;49.646;8.560;2023-04-16T11:39:48;7.83;;;3.60;;
34930;SDS011;21134;49.646;8.560;2023-04-16T11:42:19;11.03;;;3.73;;
34930;SDS011;21134;49.646;8.560;2023-04-16T11:44:50;11.67;;;4.37;;
34930;SDS011;21134;49.646;8.560;2023-04-16T11:47:18;11.33;;;3.63;;
34930;SDS011;21134;49.646;8.560;2023-04-16T11:49:45;8.73;;;4.40;;
34930;SDS011;21134;49.646;8.560;2023-04-16T11:52:13;11.93;;;3.50;;
34930;SDS011;21134;49.646;8.560;2023-04-16T11:54:40;6.47;;;4.07;;
34930;SDS011;21134;49.646;8.560;2023-04-16T11:57:06;7.27;;;3.13;;
34930;SDS011;21134;49.646;8.560;2023-04-16T11:59:33;10.40;;;3.87;;
34930;SDS011;21134;49.646;8.560;2023-04-16T12:02:01;6.07;;;3.30;;
34930;SDS011;21134;49.646;8.560;2023-04-16T12:04:27;10.67;;;4.77;;
34930;SDS011;21134;49.646;8.560;2023-04-16T12:07:03;7.73;;;3.73;;
34930;SDS011;21134;49.646;8.560;2023-04-16T12:09:32;11.13;;;4.50;;
34930;SDS011;21134;49.646;8.560;2023-04-16T12:12:00;8.03;;;5.10;;
34930;SDS011;21134;49.646;8.560;2023-04-16T12:14:27;17.97;;;5.63;;
34930;SDS011;21134;49.646;8.560;2023-04-16T12:16:53;7.60;;;4.13;;
34930;SDS011;21134;49.646;8.560;2023-04-16T12:19:20;9.37;;;4.73;;
34930;SDS011;21134;49.646;8.560;2023-04-16T12:21:47;9.83;;;4.63;;
34930;SDS011;21134;49.646;8.560;2023-04-16T12:24:16;14.73;;;4.40;;
34930;SDS011;21134;49.646;8.560;2023-04-16T12:26:47;6.10;;;3.47;;
34930;SDS011;21134;49.646;8.560;2023-04-16T12:29:20;7.90;;;3.50;;
34930;SDS011;21134;49.646;8.560;2023-04-16T12:31:48;6.70;;;3.87;;
34930;SDS011;21134;49.646;8.560;2023-04-16T12:34:16;6.20;;;4.10;;
34930;SDS011;21134;49.646;8.560;2023-04-16T12:36:45;6.77;;;3.67;;
34930;SDS011;21134;49.646;8.560;2023-04-16T12:39:12;12.20;;;4.63;;
34930;SDS011;21134;49.646;8.560;2023-04-16T12:41:40;10.37;;;4.20;;
34930;SDS011;21134;49.646;8.560;2023-04-16T12:44:09;11.70;;;4.43;;
34930;SDS011;21134;49.646;8.560;2023-04-16T12:46:37;7.07;;;3.57;;
34930;SDS011;21134;49.646;8.560;2023-04-16T12:49:04;10.97;;;4.23;;
34930;SDS011;21134;49.646;8.560;2023-04-16T12:51:32;6.30;;;2.80;;
34930;SDS011;21134;49.646;8.560;2023-04-16T12:53:59;14.07;;;5.03;;
34930;SDS011;21134;49.646;8.560;2023-04-16T12:56:26;23.40;;;4.47;;
34930;SDS011;21134;49.646;8.560;2023-04-16T12:58:53;12.87;;;4.50;;
34930;SDS011;21134;49.646;8.560;2023-04-16T13:01:21;14.17;;;5.27;;
34930;SDS011;21134;49.646;8.560;2023-04-16T13:03:48;10.20;;;4.13;;
34930;SDS011;21134;49.646;8.560;2023-04-16T13:06:15;5.47;;;2.53;;
34930;SDS011;21134;49.646;8.560;2023-04-16T13:08:42;14.67;;;5.23;;
34930;SDS011;21134;49.646;8.560;2023-04-16T13:11:09;11.10;;;5.00;;
34930;SDS011;21134;49.646;8.560;2023-04-16T13:13:36;13.77;;;4.57;;
34930;SDS011;21134;49.646;8.560;2023-04-16T13:16:03;10.27;;;3.77;;
34930;SDS011;21134;49.646;8.560;2023-04-16T13:18:33;10.13;;;5.33;;
34930;SDS011;21134;49.646;8.560;2023-04-16T13:21:01;11.97;;;4.60;;
34930;SDS011;21134;49.646;8.560;2023-04-16T13:23:28;10.60;;;3.80;;
34930;SDS011;21134;49.646;8.560;2023-04-16T13:25:55;7.23;;;4.23;;
34930;SDS011;21134;49.646;8.560;2023-04-16T13:28:21;10.43;;;4.07;;
34930;SDS011;21134;49.646;8.560;2023-04-16T13:30:48;11.53;;;5.20;;
34930;SDS011;21134;49.646;8.560;2023-04-16T13:33:14;4.30;;;3.23;;
34930;SDS011;21134;49.646;8.560;2023-04-16T13:35:42;10.77;;;3.53;;
34930;SDS011;21134;49.646;8.560;2023-04-16T13:38:09;13.43;;;4.03;;
34930;SDS011;21134;49.646;8.560;2023-04-16T13:40:36;10.30;;;3.60;;
34930;SDS011;21134;49.646;8.560;2023-04-16T13:43:02;11.43;;;4.40;;
34930;SDS011;21134;49.646;8.560;2023-04-16T13:45:29;8.67;;;3.97;;
34930;SDS011;21134;49.646;8.560;2023-04-16T13:47:55;12.73;;;4.90;;
34930;SDS011;21134;49.646;8.560;2023-04-16T13:50:22;8.93;;;4.40;;
34930;SDS011;21134;49.646;8.560;2023-04-16T13:52:50;7.50;;;5.00;;
34930;SDS011;21134;49.646;8.560;2023-04-16T13:55:16;8.57;;;3.80;;
34930;SDS011;21134;49.646;8.560;2023-04-16T13:57:44;14.73;;;4.63;;
34930;SDS011;21134;49.646;8.560;2023-04-16T14:00:11;9.00;;;5.30;;
34930;SDS011;21134;49.646;8.560;2023-04-16T14:02:39;14.47;;;4.63;;
34930;SDS011;21134;49.646;8.560;2023-04-16T14:05:06;7.07;;;3.53;;
34930;SDS011;21134;49.646;8.560;2023-04-16T14:07:33;6.43;;;3.67;;
34930;SDS011;21134;49.646;8.560;2023-04-16T14:10:01;18.07;;;5.47;;
34930;SDS011;21134;49.646;8.560;2023-04-16T14:12:28;7.20;;;4.10;;
34930;SDS011;21134;49.646;8.560;2023-04-16T14:14:55;10.33;;;5.50;;
34930;SDS011;21134;49.646;8.560;2023-04-16T14:17:22;12.47;;;5.03;;
34930;SDS011;21134;49.646;8.560;2023-04-16T14:19:48;10.43;;;4.73;;
34930;SDS011;21134;49.646;8.560;2023-04-16T14:22:15;11.17;;;5.37;;
34930;SDS011;21134;49.646;8.560;2023-04-16T14:24:42;9.10;;;4.20;;
34930;SDS011;21134;49.646;8.560;2023-04-16T14:27:10;11.00;;;6.33;;
34930;SDS011;21134;49.646;8.560;2023-04-16T14:29:36;19.33;;;5.90;;
34930;SDS011;21134;49.646;8.560;2023-04-16T14:32:03;12.47;;;5.83;;
34930;SDS011;21134;49.646;8.560;2023-04-16T14:34:30;8.53;;;4.77;;
34930;SDS011;21134;49.646;8.560;2023-04-16T14:36:57;11.00;;;3.93;;
34930;SDS011;21134;49.646;8.560;2023-04-16T14:39:23;12.37;;;5.07;;
34930;SDS011;21134;49.646;8.560;2023-04-16T14:41:50;11.60;;;4.57;;
34930;SDS011;21134;49.646;8.560;2023-04-16T14:44:17;10.97;;;5.03;;
34930;SDS011;21134;49.646;8.560;2023-04-16T14:46:44;13.63;;;4.37;;
34930;SDS011;21134;49.646;8.560;2023-04-16T14:49:10;7.53;;;4.17;;